createdAt,value
2022-12-01T00:01:34.927Z,99582.59
2022-12-01T00:04:36.506Z,99588.50
2022-12-01T00:07:38.705Z,99602.34
2022-12-01T00:10:40.414Z,99595.97
2022-12-01T00:13:42.096Z,99602.69
2022-12-01T00:16:44.761Z,99594.38
2022-12-01T00:19:46.853Z,99589.06
2022-12-01T00:22:49.436Z,99587.47
2022-12-01T00:25:51.065Z,99571.16
2022-12-01T00:28:55.264Z,99592.00
2022-12-01T00:31:57.028Z,99582.34
2022-12-01T00:34:58.719Z,99579.19
2022-12-01T00:38:00.371Z,99586.69
2022-12-01T00:41:02.696Z,99579.25
2022-12-01T00:44:04.697Z,99588.59
2022-12-01T00:47:06.506Z,99572.84
2022-12-01T00:50:08.472Z,99591.56
2022-12-01T00:53:10.296Z,99592.88
2022-12-01T00:56:15.160Z,99590.75
2022-12-01T00:59:16.980Z,99593.44
2022-12-01T01:02:19.095Z,99610.03
2022-12-01T01:05:20.794Z,99598.06
2022-12-01T01:08:22.798Z,99597.25
2022-12-01T01:11:24.882Z,99606.91
2022-12-01T01:14:26.630Z,99608.53
2022-12-01T01:17:28.280Z,99602.16
2022-12-01T01:20:30.351Z,99610.72
2022-12-01T01:23:32.427Z,99598.44
2022-12-01T01:26:35.500Z,99600.56
2022-12-01T01:29:37.243Z,99608.03
2022-12-01T01:32:38.943Z,99599.25
2022-12-01T01:35:40.846Z,99614.19
2022-12-01T01:38:42.658Z,99618.22
2022-12-01T01:41:44.395Z,99607.03
2022-12-01T01:44:57.314Z,99611.84
2022-12-01T01:48:00.646Z,99616.13
2022-12-01T01:51:03.182Z,99612.13
2022-12-01T01:54:09.995Z,99610.84
2022-12-01T01:57:16.721Z,99615.63
2022-12-01T02:00:19.399Z,99614.81
2022-12-01T02:03:22.626Z,99608.44
2022-12-01T02:06:24.621Z,99617.25
2022-12-01T02:09:26.258Z,99622.06
2022-12-01T02:12:39.585Z,99619.41
2022-12-01T02:16:05.585Z,99632.75
2022-12-01T02:19:41.251Z,99631.69
2022-12-01T02:23:16.608Z,99621.81
2022-12-01T02:26:47.614Z,99619.41
2022-12-01T02:30:09.966Z,99622.34
2022-12-01T02:33:37.198Z,99624.75
2022-12-01T02:36:48.275Z,99628.47
2022-12-01T02:40:06.303Z,99627.97
2022-12-01T02:43:12.795Z,99615.69
2022-12-01T02:46:39.612Z,99623.16
2022-12-01T02:49:49.503Z,99630.38
2022-12-01T02:52:53.411Z,99628.22
2022-12-01T02:55:58.473Z,99620.50
2022-12-01T02:59:00.126Z,99622.63
2022-12-01T03:02:15.578Z,99628.50
2022-12-01T03:05:35.155Z,99622.38
2022-12-01T03:09:15.911Z,99616.22
2022-12-01T03:12:44.246Z,99619.66
2022-12-01T03:16:00.626Z,99622.59
2022-12-01T03:19:32.609Z,99622.88
2022-12-01T03:22:44.552Z,99617.00
2022-12-01T03:25:50.598Z,99618.06
2022-12-01T03:29:00.994Z,99615.16
2022-12-01T03:32:15.552Z,99606.06
2022-12-01T03:35:23.586Z,99596.97
2022-12-01T03:38:27.422Z,99583.09
2022-12-01T03:41:36.593Z,99582.03
2022-12-01T03:44:45.020Z,99596.44
2022-12-01T03:47:46.921Z,99588.44
2022-12-01T03:50:54.637Z,99591.59
2022-12-01T03:54:00.474Z,99594.81
2022-12-01T03:57:06.235Z,99597.75
2022-12-01T04:00:11.415Z,99601.22
2022-12-01T04:03:22.953Z,99603.91
2022-12-01T04:06:24.601Z,99590.56
2022-12-01T04:09:26.250Z,99604.97
2022-12-01T04:12:30.864Z,99609.53
2022-12-01T04:15:32.485Z,99605.53
2022-12-01T04:18:34.148Z,99599.13
2022-12-01T04:21:35.760Z,99597.00
2022-12-01T04:24:37.407Z,99616.47
2022-12-01T04:27:39.344Z,99611.13
2022-12-01T04:30:40.959Z,99609.28
2022-12-01T04:33:43.125Z,99602.84
2022-12-01T04:36:44.888Z,99592.16
2022-12-01T04:39:46.677Z,99614.88
2022-12-01T04:42:48.435Z,99617.00
2022-12-01T04:45:50.067Z,99615.41
2022-12-01T04:48:51.780Z,99640.22
2022-12-01T04:51:53.503Z,99622.63
2022-12-01T04:54:55.155Z,99635.97
2022-12-01T04:57:58.052Z,99628.22
2022-12-01T05:01:05.099Z,99629.56
2022-12-01T05:04:06.968Z,99621.00
2022-12-01T05:07:09.095Z,99627.94
2022-12-01T05:10:13.062Z,99623.66
2022-12-01T05:13:14.659Z,99624.72
2022-12-01T05:16:20.000Z,99627.66
2022-12-01T05:19:40.536Z,99634.34
2022-12-01T05:23:04.739Z,99631.66
2022-12-01T05:26:06.694Z,99639.38
2022-12-01T05:29:09.228Z,99638.34
2022-12-01T05:32:10.899Z,99635.38
2022-12-01T05:35:12.828Z,99622.31
2022-12-01T05:38:14.712Z,99634.88
2022-12-01T05:41:16.841Z,99633.03
2022-12-01T05:44:18.481Z,99639.72
2022-12-01T05:47:20.129Z,99642.63
2022-12-01T05:50:22.661Z,99625.28
2022-12-01T05:53:24.280Z,99639.69
2022-12-01T05:56:26.073Z,99641.28
2022-12-01T05:59:28.336Z,99622.06
2022-12-01T06:02:30.022Z,99641.56
2022-12-01T06:05:31.889Z,99641.81
2022-12-01T06:08:33.529Z,99649.81
2022-12-01T06:11:35.139Z,99653.00
2022-12-01T06:14:36.834Z,99655.16
2022-12-01T06:17:40.604Z,99650.59
2022-12-01T06:20:42.302Z,99642.34
2022-12-01T06:23:43.931Z,99641.53
2022-12-01T06:26:45.631Z,99659.72
2022-12-01T06:29:49.215Z,99652.47
2022-12-01T06:32:51.003Z,99668.25
2022-12-01T06:36:00.999Z,99664.75
2022-12-01T06:39:07.533Z,99665.81
2022-12-01T06:42:09.945Z,99668.50
2022-12-01T06:45:12.033Z,99675.19
2022-12-01T06:48:14.253Z,99666.34
2022-12-01T06:51:15.839Z,99671.16
2022-12-01T06:54:18.100Z,99679.44
2022-12-01T06:57:19.976Z,99682.91
2022-12-01T07:00:22.723Z,99688.78
2022-12-01T07:03:24.534Z,99693.06
2022-12-01T07:06:27.622Z,99698.16
2022-12-01T07:09:29.348Z,99690.66
2022-12-01T07:12:31.713Z,99693.63
2022-12-01T07:15:33.328Z,99695.78
2022-12-01T07:18:37.036Z,99695.47
2022-12-01T07:21:41.407Z,99693.63
2022-12-01T07:24:43.037Z,99705.88
2022-12-01T07:27:44.719Z,99709.63
2022-12-01T07:30:46.390Z,99708.56
2022-12-01T07:33:48.025Z,99712.03
2022-12-01T07:36:49.756Z,99708.03
2022-12-01T07:39:52.552Z,99722.44
2022-12-01T07:42:54.331Z,99718.16
2022-12-01T07:45:56.025Z,99719.25
2022-12-01T07:48:58.268Z,99721.13
2022-12-01T07:51:59.978Z,99720.31
2022-12-01T07:55:01.680Z,99734.22
2022-12-01T07:58:03.348Z,99727.78
2022-12-01T08:01:17.349Z,99731.00
2022-12-01T08:04:19.168Z,99742.75
2022-12-01T08:07:20.909Z,99733.94
2022-12-01T08:10:22.640Z,99735.81
2022-12-01T08:13:24.318Z,99722.97
2022-12-01T08:16:26.147Z,99737.69
2022-12-01T08:19:29.309Z,99747.59
2022-12-01T08:22:30.963Z,99752.41
2022-12-01T08:25:32.554Z,99729.69
2022-12-01T08:28:37.525Z,99741.44
2022-12-01T08:31:40.321Z,99746.25
2022-12-01T08:34:41.978Z,99754.81
2022-12-01T08:37:43.603Z,99746.00
2022-12-01T08:40:45.268Z,99741.72
2022-12-01T08:43:57.828Z,99741.72
2022-12-01T08:47:00.309Z,99748.16
2022-12-01T08:50:04.675Z,99746.28
2022-12-01T08:53:06.288Z,99750.81
2022-12-01T08:56:26.932Z,99745.75
2022-12-01T08:59:28.603Z,99753.75
2022-12-01T09:02:30.422Z,99758.03
2022-12-01T09:05:32.090Z,99753.75
2022-12-01T09:08:35.212Z,99773.53
2022-12-01T09:11:37.662Z,99770.06
2022-12-01T09:14:41.143Z,99771.13
2022-12-01T09:17:42.739Z,99775.16
2022-12-01T09:20:44.384Z,99778.34
2022-12-01T09:23:46.809Z,99769.53
2022-12-01T09:26:48.586Z,99766.06
2022-12-01T09:29:50.532Z,99770.88
2022-12-01T09:32:52.469Z,99779.44
2022-12-01T09:35:58.462Z,99779.72
2022-12-01T09:39:00.840Z,99781.56
2022-12-01T09:42:12.963Z,99777.81
2022-12-01T09:45:26.757Z,99783.72
2022-12-01T09:48:34.574Z,99781.59
2022-12-01T09:51:37.018Z,99782.41
2022-12-01T09:54:38.833Z,99783.19
2022-12-01T09:57:41.804Z,99773.28
2022-12-01T10:00:44.485Z,99761.00
2022-12-01T10:03:57.868Z,99775.97
2022-12-01T10:07:25.108Z,99768.50
2022-12-01T10:10:46.215Z,99761.00
2022-12-01T10:13:47.904Z,99753.53
2022-12-01T10:17:10.783Z,99756.19
2022-12-01T10:20:24.435Z,99743.38
2022-12-01T10:23:55.401Z,99747.91
2022-12-01T10:27:06.168Z,99749.25
2022-12-01T10:30:20.047Z,99732.97
2022-12-01T10:33:36.347Z,99739.91
2022-12-01T10:36:37.915Z,99738.31
2022-12-01T10:39:46.464Z,99728.44
2022-12-01T10:42:50.471Z,99737.25
2022-12-01T10:45:53.622Z,99736.19
2022-12-01T10:48:58.335Z,99740.44
2022-12-01T10:52:00.079Z,99743.91
2022-12-01T10:55:03.612Z,99736.16
2022-12-01T10:58:15.483Z,99738.84
2022-12-01T11:01:32.073Z,99722.78
2022-12-01T11:04:46.515Z,99721.72
2022-12-01T11:07:49.688Z,99715.31
2022-12-01T11:10:52.163Z,99711.03
2022-12-01T11:13:54.944Z,99697.66
2022-12-01T11:16:56.623Z,99690.47
2022-12-01T11:19:58.867Z,99706.50
2022-12-01T11:23:09.762Z,99704.59
2022-12-01T11:26:24.984Z,99703.81
2022-12-01T11:29:33.125Z,99693.13
2022-12-01T11:32:39.266Z,99685.13
2022-12-01T11:35:47.708Z,99699.28
2022-12-01T11:38:50.486Z,99694.72
2022-12-01T11:41:57.913Z,99696.63
2022-12-01T11:45:18.827Z,99690.72
2022-12-01T11:48:25.854Z,99684.84
2022-12-01T11:51:32.012Z,99687.50
2022-12-01T11:54:34.010Z,99676.00
2022-12-01T11:57:35.712Z,99684.53
2022-12-01T12:00:47.997Z,99683.22
2022-12-01T12:04:23.785Z,99676.00
2022-12-01T12:07:45.793Z,99687.75
2022-12-01T12:11:19.043Z,99674.94
2022-12-01T12:14:41.046Z,99677.63
2022-12-01T12:17:48.964Z,99676.00
2022-12-01T12:21:13.582Z,99680.03
2022-12-01T12:24:47.541Z,99683.22
2022-12-01T12:28:07.416Z,99681.34
2022-12-01T12:31:21.074Z,99678.66
2022-12-01T12:34:48.510Z,99675.75
2022-12-01T12:38:22.335Z,99682.44
2022-12-01T12:41:33.001Z,99676.81
2022-12-01T12:44:43.897Z,99680.03
2022-12-01T12:48:14.916Z,99683.47
2022-12-01T12:51:36.920Z,99683.75
2022-12-01T12:54:38.605Z,99681.63
2022-12-01T12:58:11.237Z,99682.16
2022-12-01T13:01:21.234Z,99676.53
2022-12-01T13:04:32.146Z,99673.31
2022-12-01T13:07:50.947Z,99672.25
2022-12-01T13:10:59.625Z,99673.06
2022-12-01T13:14:07.313Z,99669.06
2022-12-01T13:17:38.472Z,99671.47
2022-12-01T13:20:41.235Z,99667.75
2022-12-01T13:23:44.753Z,99661.06
2022-12-01T13:26:59.476Z,99679.50
2022-12-01T13:30:01.950Z,99655.94
2022-12-01T13:33:05.527Z,99667.47
2022-12-01T13:36:45.001Z,99653.31
2022-12-01T13:39:37.364Z,99673.34
2022-12-01T13:42:39.930Z,99665.06
2022-12-01T13:45:42.178Z,99665.59
2022-12-01T13:48:52.004Z,99669.34
2022-12-01T13:52:19.034Z,99662.66
2022-12-01T13:55:26.821Z,99657.59
2022-12-01T13:58:34.442Z,99657.59
2022-12-01T14:01:43.651Z,99657.06
2022-12-01T14:04:45.442Z,99650.94
2022-12-01T14:07:47.183Z,99652.00
2022-12-01T14:10:59.667Z,99655.75
2022-12-01T14:14:13.305Z,99659.47
2022-12-01T14:17:45.132Z,99658.66
2022-12-01T14:20:48.706Z,99658.66
2022-12-01T14:24:02.600Z,99658.13
2022-12-01T14:27:05.629Z,99655.97
2022-12-01T14:30:45.735Z,99652.28
2022-12-01T14:33:59.146Z,99653.59
2022-12-01T14:37:12.036Z,99652.53
2022-12-01T14:40:22.369Z,99649.34
2022-12-01T14:43:45.672Z,99653.59
2022-12-01T14:47:12.386Z,99652.28
2022-12-01T14:50:24.890Z,99657.06
2022-12-01T14:53:33.764Z,99645.03
2022-12-01T14:56:37.219Z,99642.66
2022-12-01T14:59:38.956Z,99653.06
2022-12-01T15:02:42.656Z,99655.19
2022-12-01T15:05:44.341Z,99663.22
2022-12-01T15:08:58.757Z,99648.78
2022-12-01T15:12:27.698Z,99656.53
2022-12-01T15:15:29.343Z,99652.28
2022-12-01T15:18:36.789Z,99636.50
2022-12-01T15:21:38.439Z,99654.66
2022-12-01T15:24:40.430Z,99648.78
2022-12-01T15:27:45.369Z,99658.94
2022-12-01T15:30:50.617Z,99648.25
2022-12-01T15:33:53.268Z,99652.28
2022-12-01T15:36:55.096Z,99652.53
2022-12-01T15:43:26.849Z,99661.88
2022-12-01T15:46:30.910Z,99658.13
2022-12-01T15:49:33.520Z,99659.19
2022-12-01T15:52:44.868Z,99651.47
2022-12-01T15:55:50.889Z,99651.97
2022-12-01T15:59:03.298Z,99653.34
2022-12-01T16:02:21.477Z,99651.19
2022-12-01T16:05:30.191Z,99650.91
2022-12-01T16:08:32.019Z,99647.97
2022-12-01T16:11:34.063Z,99650.91
2022-12-01T16:14:36.717Z,99652.78
2022-12-01T16:17:49.754Z,99652.00
2022-12-01T16:20:51.371Z,99653.59
2022-12-01T16:24:05.180Z,99651.47
2022-12-01T16:27:19.409Z,99662.13
2022-12-01T16:30:30.114Z,99653.59
2022-12-01T16:33:37.560Z,99650.66
2022-12-01T16:36:39.168Z,99650.66
2022-12-01T16:39:40.873Z,99653.31
2022-12-01T16:42:42.677Z,99650.13
2022-12-01T16:45:46.297Z,99656.81
2022-12-01T16:48:47.951Z,99664.81
2022-12-01T16:51:56.174Z,99663.75
2022-12-01T16:54:58.668Z,99662.41
2022-12-01T16:58:00.281Z,99662.13
2022-12-01T17:01:01.947Z,99659.72
2022-12-01T17:04:07.621Z,99666.94
2022-12-01T17:07:09.595Z,99663.75
2022-12-01T17:10:11.712Z,99677.09
2022-12-01T17:13:13.678Z,99675.22
2022-12-01T17:16:18.365Z,99677.38
2022-12-01T17:19:20.513Z,99675.50
2022-12-01T17:22:22.400Z,99673.09
2022-12-01T17:25:25.279Z,99672.03
2022-12-01T17:28:27.248Z,99665.91
2022-12-01T17:31:28.900Z,99660.53
2022-12-01T17:34:30.670Z,99666.16
2022-12-01T17:37:32.323Z,99666.69
2022-12-01T17:40:35.090Z,99672.03
2022-12-01T17:43:38.473Z,99670.16
2022-12-01T17:46:41.851Z,99666.94
2022-12-01T17:49:43.629Z,99673.59
2022-12-01T17:52:45.329Z,99664.53
2022-12-01T17:55:47.055Z,99672.56
2022-12-01T17:58:50.461Z,99668.81
2022-12-01T18:01:52.356Z,99674.44
2022-12-01T18:04:54.507Z,99689.63
2022-12-01T18:07:56.381Z,99681.34
2022-12-01T18:11:02.886Z,99686.94
2022-12-01T18:14:04.480Z,99677.06
2022-12-01T18:17:06.532Z,99681.88
2022-12-01T18:20:08.906Z,99684.56
2022-12-01T18:23:12.694Z,99688.28
2022-12-01T18:26:16.188Z,99682.69
2022-12-01T18:29:25.922Z,99681.88
2022-12-01T18:32:27.888Z,99681.88
2022-12-01T18:35:31.890Z,99679.19
2022-12-01T18:38:33.820Z,99672.25
2022-12-01T18:41:36.249Z,99677.09
2022-12-01T18:44:40.272Z,99679.47
2022-12-01T18:47:42.003Z,99676.00
2022-12-01T18:50:43.589Z,99685.38
2022-12-01T18:53:45.521Z,99683.22
2022-12-01T18:56:51.446Z,99687.50
2022-12-01T18:59:53.169Z,99676.53
2022-12-01T19:02:54.865Z,99668.25
2022-12-01T19:05:56.706Z,99677.63
2022-12-01T19:09:00.172Z,99666.41
2022-12-01T19:12:02.316Z,99657.03
2022-12-01T19:15:04.492Z,99673.34
2022-12-01T19:18:06.284Z,99676.84
2022-12-01T19:21:09.598Z,99670.13
2022-12-01T19:24:11.673Z,99660.81
2022-12-01T19:27:13.290Z,99660.53
2022-12-01T19:30:15.134Z,99665.84
2022-12-01T19:33:17.342Z,99661.84
2022-12-01T19:36:25.449Z,99659.47
2022-12-01T19:39:27.104Z,99662.41
2022-12-01T19:42:30.220Z,99648.78
2022-12-01T19:45:33.400Z,99659.47
2022-12-01T19:48:35.459Z,99657.06
2022-12-01T19:51:38.740Z,99648.25
2022-12-01T19:54:40.402Z,99655.47
2022-12-01T19:57:42.084Z,99654.13
2022-12-01T20:00:43.895Z,99657.59
2022-12-01T20:03:50.502Z,99655.47
2022-12-01T20:06:52.173Z,99653.59
2022-12-01T20:09:53.816Z,99654.13
2022-12-01T20:12:55.520Z,99652.00
2022-12-01T20:16:15.394Z,99663.47
2022-12-01T20:19:17.258Z,99662.16
2022-12-01T20:22:19.078Z,99656.81
2022-12-01T20:25:20.714Z,99656.53
2022-12-01T20:28:22.436Z,99653.03
2022-12-01T20:31:26.565Z,99666.16
2022-12-01T20:34:34.498Z,99665.31
2022-12-01T20:37:36.211Z,99663.47
2022-12-01T20:40:38.065Z,99649.84
2022-12-01T20:43:40.981Z,99658.66
2022-12-01T20:46:46.123Z,99657.84
2022-12-01T20:49:47.839Z,99647.72
2022-12-01T20:52:49.489Z,99639.97
2022-12-01T20:55:51.207Z,99640.25
2022-12-01T20:58:52.946Z,99649.31
2022-12-01T21:01:54.887Z,99645.84
2022-12-01T21:04:59.194Z,99656.00
2022-12-01T21:08:01.906Z,99653.59
2022-12-01T21:11:06.856Z,99636.22
2022-12-01T21:14:35.344Z,99647.72
2022-12-01T21:17:43.904Z,99655.97
2022-12-01T21:20:47.657Z,99657.84
2022-12-01T21:24:01.149Z,99649.03
2022-12-01T21:27:13.876Z,99627.69
2022-12-01T21:30:22.054Z,99644.75
2022-12-01T21:33:42.578Z,99637.56
2022-12-01T21:36:45.317Z,99630.09
2022-12-01T21:39:50.884Z,99641.31
2022-12-01T21:42:52.999Z,99636.22
2022-12-01T21:46:13.636Z,99633.53
2022-12-01T21:49:21.077Z,99634.34
2022-12-01T21:52:27.354Z,99624.19
2022-12-01T21:55:34.936Z,99636.47
2022-12-01T21:58:37.413Z,99627.94
2022-12-01T22:01:40.325Z,99631.66
2022-12-01T22:04:43.339Z,99616.72
2022-12-01T22:07:44.981Z,99623.91
2022-12-01T22:11:03.805Z,99620.19
2022-12-01T22:14:08.396Z,99618.59
2022-12-01T22:17:10.007Z,99621.56
2022-12-01T22:20:21.575Z,99614.88
2022-12-01T22:23:32.802Z,99617.25
2022-12-01T22:26:37.516Z,99616.72
2022-12-01T22:29:45.532Z,99623.66
2022-12-01T22:32:57.086Z,99626.03
2022-12-01T22:35:58.719Z,99621.50
2022-12-01T22:39:01.300Z,99616.72
2022-12-01T22:42:09.526Z,99610.84
2022-12-01T22:45:22.861Z,99611.91
2022-12-01T22:48:39.057Z,99607.63
2022-12-01T22:51:49.359Z,99612.44
2022-12-01T22:54:51.344Z,99615.88
2022-12-01T22:57:53.944Z,99608.41
2022-12-01T23:00:58.104Z,99614.53
2022-12-01T23:04:15.074Z,99616.13
2022-12-01T23:07:29.355Z,99617.75
2022-12-01T23:10:34.701Z,99616.16
2022-12-01T23:13:36.384Z,99622.56
2022-12-01T23:16:39.396Z,99618.81
2022-12-01T23:19:41.098Z,99612.44
2022-12-01T23:22:42.929Z,99615.38
2022-12-01T23:25:46.036Z,99615.09
2022-12-01T23:28:47.806Z,99604.69
2022-12-01T23:31:50.573Z,99603.09
2022-12-01T23:34:55.732Z,99597.75
2022-12-01T23:38:01.433Z,99588.94
2022-12-01T23:41:07.128Z,99596.97
2022-12-01T23:44:24.021Z,99581.75
2022-12-01T23:47:29.085Z,99588.97
2022-12-01T23:50:31.315Z,99592.97
2022-12-01T23:53:33.163Z,99576.44
2022-12-01T23:56:37.897Z,99588.94
2022-12-01T23:59:39.571Z,99580.97
